createdAt,value
2023-04-16T00:00:56.508Z,9.85
2023-04-16T00:03:09.654Z,9.86
2023-04-16T00:05:17.122Z,9.89
2023-04-16T00:07:25.304Z,9.90
2023-04-16T00:09:32.347Z,9.90
2023-04-16T00:11:39.767Z,9.90
2023-04-16T00:13:44.090Z,9.90
2023-04-16T00:16:02.480Z,9.89
2023-04-16T00:18:06.295Z,9.88
2023-04-16T00:20:11.977Z,9.87
2023-04-16T00:22:15.620Z,9.86
2023-04-16T00:24:18.417Z,9.85
2023-04-16T00:26:24.716Z,9.88
2023-04-16T00:28:29.138Z,9.90
2023-04-16T00:30:32.254Z,9.91
2023-04-16T00:32:37.778Z,9.91
2023-04-16T00:34:44.742Z,9.91
2023-04-16T00:37:10.650Z,9.91
2023-04-16T00:39:17.914Z,9.90
2023-04-16T00:41:23.328Z,9.88
2023-04-16T00:43:27.243Z,9.87
2023-04-16T00:45:38.421Z,9.86
2023-04-16T00:47:41.702Z,9.84
2023-04-16T00:49:48.549Z,9.83
2023-04-16T00:51:55.557Z,9.86
2023-04-16T00:53:59.688Z,9.88
2023-04-16T00:56:07.645Z,9.89
2023-04-16T00:58:11.355Z,9.90
2023-04-16T01:00:43.883Z,9.91
2023-04-16T01:02:47.308Z,9.90
2023-04-16T01:04:56.202Z,9.90
2023-04-16T01:06:59.429Z,9.89
2023-04-16T01:09:03.477Z,9.88
2023-04-16T01:11:07.624Z,9.88
2023-04-16T01:13:11.142Z,9.89
2023-04-16T01:15:14.093Z,9.91
2023-04-16T01:17:19.926Z,9.93
2023-04-16T01:19:26.162Z,9.94
2023-04-16T01:21:31.316Z,9.94
2023-04-16T01:23:35.433Z,9.93
2023-04-16T01:25:39.719Z,9.92
2023-04-16T01:27:42.610Z,9.91
2023-04-16T01:29:45.907Z,9.91
2023-04-16T01:31:54.602Z,9.90
2023-04-16T01:34:07.614Z,9.89
2023-04-16T01:36:11.989Z,9.90
2023-04-16T01:38:15.265Z,9.91
2023-04-16T01:40:18.410Z,9.91
2023-04-16T01:42:21.587Z,9.90
2023-04-16T01:44:25.616Z,9.90
2023-04-16T01:46:29.699Z,9.90
2023-04-16T01:48:33.235Z,9.89
2023-04-16T01:50:39.202Z,9.89
2023-04-16T01:52:42.460Z,9.88
2023-04-16T01:54:45.275Z,9.86
2023-04-16T01:56:48.432Z,9.85
2023-04-16T01:58:52.835Z,9.86
2023-04-16T02:00:56.320Z,9.86
2023-04-16T02:02:59.645Z,9.87
2023-04-16T02:05:02.720Z,9.86
2023-04-16T02:07:06.873Z,9.85
2023-04-16T02:09:09.819Z,9.84
2023-04-16T02:11:14.089Z,9.82
2023-04-16T02:13:17.401Z,9.80
2023-04-16T02:15:30.474Z,9.79
2023-04-16T02:17:34.996Z,9.78
2023-04-16T02:19:44.044Z,9.78
2023-04-16T02:21:47.149Z,9.81
2023-04-16T02:23:51.711Z,9.84
2023-04-16T02:25:58.740Z,9.85
2023-04-16T02:28:01.743Z,9.86
2023-04-16T02:30:11.900Z,9.85
2023-04-16T02:32:15.848Z,9.85
2023-04-16T02:34:21.041Z,9.85
2023-04-16T02:36:24.826Z,9.85
2023-04-16T02:38:27.798Z,9.83
2023-04-16T02:40:31.645Z,9.82
2023-04-16T02:42:34.897Z,9.80
2023-04-16T02:44:38.172Z,9.82
2023-04-16T02:46:40.928Z,9.83
2023-04-16T02:48:44.088Z,9.85
2023-04-16T02:50:48.082Z,9.85
2023-04-16T02:52:53.045Z,9.86
2023-04-16T02:55:12.194Z,9.86
2023-04-16T02:57:25.259Z,9.84
2023-04-16T02:59:28.791Z,9.83
2023-04-16T03:01:35.492Z,9.82
2023-04-16T03:03:39.028Z,9.81
2023-04-16T03:05:43.709Z,9.80
2023-04-16T03:07:51.448Z,9.82
2023-04-16T03:09:55.740Z,9.85
2023-04-16T03:11:58.624Z,9.86
2023-04-16T03:14:03.533Z,9.87
2023-04-16T03:16:08.982Z,9.88
2023-04-16T03:18:14.460Z,9.88
2023-04-16T03:20:19.260Z,9.88
2023-04-16T03:22:22.357Z,9.87
2023-04-16T03:24:29.731Z,9.87
2023-04-16T03:26:36.368Z,9.86
2023-04-16T03:28:39.483Z,9.85
2023-04-16T03:30:42.794Z,9.86
2023-04-16T03:32:46.133Z,9.89
2023-04-16T03:34:49.198Z,9.90
2023-04-16T03:36:52.067Z,9.90
2023-04-16T03:38:55.825Z,9.91
2023-04-16T03:40:59.331Z,9.91
2023-04-16T03:43:02.984Z,9.91
2023-04-16T03:45:09.823Z,9.90
2023-04-16T03:47:17.989Z,9.90
2023-04-16T03:49:23.547Z,9.90
2023-04-16T03:51:27.229Z,9.88
2023-04-16T03:53:31.188Z,9.91
2023-04-16T03:55:35.304Z,9.93
2023-04-16T03:57:38.311Z,9.95
2023-04-16T03:59:44.326Z,9.96
2023-04-16T04:01:47.769Z,9.95
2023-04-16T04:04:02.240Z,9.94
2023-04-16T04:06:13.070Z,9.92
2023-04-16T04:08:16.635Z,9.91
2023-04-16T04:10:20.445Z,9.91
2023-04-16T04:12:23.676Z,9.90
2023-04-16T04:14:27.861Z,9.90
2023-04-16T04:16:34.189Z,9.91
2023-04-16T04:18:39.431Z,9.93
2023-04-16T04:20:42.372Z,9.93
2023-04-16T04:22:48.246Z,9.94
2023-04-16T04:24:51.102Z,9.94
2023-04-16T04:26:54.305Z,9.95
2023-04-16T04:28:58.746Z,9.95
2023-04-16T04:31:02.366Z,9.95
2023-04-16T04:33:06.474Z,9.95
2023-04-16T04:35:10.193Z,9.94
2023-04-16T04:37:14.466Z,9.95
2023-04-16T04:39:17.355Z,9.97
2023-04-16T04:41:21.353Z,9.98
2023-04-16T04:43:44.265Z,10.00
2023-04-16T04:45:54.002Z,10.00
2023-04-16T04:47:56.899Z,10.01
2023-04-16T04:49:59.621Z,10.00
2023-04-16T04:52:04.288Z,10.00
2023-04-16T04:54:08.612Z,9.99
2023-04-16T04:56:12.772Z,9.98
2023-04-16T04:58:16.934Z,9.97
2023-04-16T05:00:21.851Z,9.96
2023-04-16T05:02:33.306Z,9.97
2023-04-16T05:04:41.541Z,10.00
2023-04-16T05:06:48.107Z,10.01
2023-04-16T05:08:50.907Z,10.00
2023-04-16T05:10:59.217Z,9.99
2023-04-16T05:13:03.949Z,9.98
2023-04-16T05:15:07.914Z,9.97
2023-04-16T05:17:11.002Z,9.94
2023-04-16T05:19:14.123Z,9.92
2023-04-16T05:21:17.002Z,9.92
2023-04-16T05:23:22.035Z,9.91
2023-04-16T05:25:24.996Z,9.91
2023-04-16T05:27:27.851Z,9.92
2023-04-16T05:29:32.675Z,9.93
2023-04-16T05:31:35.669Z,9.93
2023-04-16T05:33:38.901Z,9.93
2023-04-16T05:35:42.133Z,9.94
2023-04-16T05:37:45.257Z,9.94
2023-04-16T05:39:50.553Z,9.95
2023-04-16T05:41:58.711Z,9.95
2023-04-16T05:44:03.686Z,9.91
2023-04-16T05:46:09.331Z,9.86
2023-04-16T05:48:16.974Z,9.82
2023-04-16T05:50:23.222Z,9.82
2023-04-16T05:52:26.610Z,9.81
2023-04-16T05:54:29.453Z,9.81
2023-04-16T05:56:34.170Z,9.81
2023-04-16T05:58:37.497Z,9.81
2023-04-16T06:00:41.108Z,9.84
2023-04-16T06:02:44.329Z,9.83
2023-04-16T06:04:50.010Z,9.83
2023-04-16T06:06:52.819Z,9.83
2023-04-16T06:08:58.290Z,9.84
2023-04-16T06:11:03.478Z,9.88
2023-04-16T06:13:06.778Z,9.92
2023-04-16T06:15:13.116Z,9.96
2023-04-16T06:17:16.623Z,9.99
2023-04-16T06:19:19.669Z,9.99
2023-04-16T06:21:35.262Z,10.01
2023-04-16T06:23:39.072Z,10.01
2023-04-16T06:25:41.909Z,10.00
2023-04-16T06:27:51.818Z,10.00
2023-04-16T06:29:58.795Z,9.98
2023-04-16T06:32:02.128Z,9.96
2023-04-16T06:34:07.697Z,9.94
2023-04-16T06:36:11.570Z,9.95
2023-04-16T06:38:17.080Z,9.95
2023-04-16T06:40:21.906Z,9.95
2023-04-16T06:42:29.535Z,9.93
2023-04-16T06:44:39.313Z,9.92
2023-04-16T06:46:52.414Z,9.92
2023-04-16T06:48:57.830Z,9.93
2023-04-16T06:51:03.175Z,9.94
2023-04-16T06:53:09.761Z,9.96
2023-04-16T06:55:13.422Z,10.00
2023-04-16T06:57:16.346Z,10.03
2023-04-16T06:59:19.085Z,10.08
2023-04-16T07:01:23.013Z,10.09
2023-04-16T07:03:26.748Z,10.11
2023-04-16T07:05:30.703Z,10.12
2023-04-16T07:07:33.641Z,10.12
2023-04-16T07:09:41.238Z,10.10
2023-04-16T07:11:44.990Z,10.09
2023-04-16T07:13:48.932Z,10.10
2023-04-16T07:15:51.825Z,10.12
2023-04-16T07:18:05.240Z,10.15
2023-04-16T07:20:17.690Z,10.16
2023-04-16T07:22:22.522Z,10.17
2023-04-16T07:24:27.055Z,10.18
2023-04-16T07:26:29.734Z,10.20
2023-04-16T07:28:38.665Z,10.22
2023-04-16T07:30:43.837Z,10.25
2023-04-16T07:32:49.135Z,10.26
2023-04-16T07:34:53.407Z,10.28
2023-04-16T07:37:00.172Z,10.31
2023-04-16T07:39:09.273Z,10.32
2023-04-16T07:41:16.567Z,10.36
2023-04-16T07:43:19.397Z,10.38
2023-04-16T07:45:29.175Z,10.40
2023-04-16T07:47:32.006Z,10.43
2023-04-16T07:49:38.457Z,10.45
2023-04-16T07:51:50.063Z,10.48
2023-04-16T07:53:55.621Z,10.50
2023-04-16T07:55:58.816Z,10.51
2023-04-16T07:58:03.011Z,10.55
2023-04-16T08:00:09.684Z,10.57
2023-04-16T08:02:18.646Z,10.58
2023-04-16T08:04:43.437Z,10.57
2023-04-16T08:06:48.049Z,10.58
2023-04-16T08:08:51.365Z,10.59
2023-04-16T08:10:58.019Z,10.59
2023-04-16T08:13:02.070Z,10.61
2023-04-16T08:15:06.921Z,10.59
2023-04-16T08:17:14.687Z,10.60
2023-04-16T08:19:18.590Z,10.66
2023-04-16T08:21:22.919Z,10.72
2023-04-16T08:23:26.197Z,10.77
2023-04-16T08:25:30.165Z,10.81
2023-04-16T08:27:33.411Z,10.84
2023-04-16T08:29:36.546Z,10.84
2023-04-16T08:31:43.631Z,10.84
2023-04-16T08:33:46.655Z,10.86
2023-04-16T08:35:50.725Z,10.86
2023-04-16T08:37:54.309Z,10.87
2023-04-16T08:39:57.407Z,10.90
2023-04-16T08:42:06.101Z,10.93
2023-04-16T08:44:12.123Z,10.95
2023-04-16T08:46:17.718Z,10.97
2023-04-16T08:48:22.249Z,10.99
2023-04-16T08:50:29.818Z,10.99
2023-04-16T08:52:43.556Z,10.99
2023-04-16T08:55:12.384Z,11.01
2023-04-16T08:57:19.705Z,11.02
2023-04-16T08:59:23.736Z,11.01
2023-04-16T09:01:26.914Z,11.00
2023-04-16T09:03:35.668Z,11.00
2023-04-16T09:05:39.753Z,10.99
2023-04-16T09:07:44.713Z,11.00
2023-04-16T09:09:49.992Z,11.03
2023-04-16T09:11:54.035Z,11.06
2023-04-16T09:13:58.078Z,11.12
2023-04-16T09:16:01.311Z,11.16
2023-04-16T09:18:06.654Z,11.20
2023-04-16T09:20:13.842Z,11.26
2023-04-16T09:22:18.162Z,11.28
2023-04-16T09:24:24.316Z,11.29
2023-04-16T09:26:34.422Z,11.29
2023-04-16T09:28:43.582Z,11.29
2023-04-16T09:30:46.416Z,11.29
2023-04-16T09:32:51.360Z,11.30
2023-04-16T09:35:00.248Z,11.29
2023-04-16T09:37:18.584Z,11.32
2023-04-16T09:39:26.148Z,11.35
2023-04-16T09:41:39.502Z,11.33
2023-04-16T09:43:49.792Z,11.33
2023-04-16T09:45:55.469Z,11.33
2023-04-16T09:48:08.054Z,11.30
2023-04-16T09:50:20.151Z,11.31
2023-04-16T09:52:26.854Z,11.36
2023-04-16T09:54:30.168Z,11.43
2023-04-16T09:56:35.563Z,11.47
2023-04-16T09:58:41.796Z,11.51
2023-04-16T10:00:44.597Z,11.55
2023-04-16T10:04:54.689Z,11.61
2023-04-16T10:07:06.789Z,11.63
2023-04-16T10:09:11.256Z,11.66
2023-04-16T10:11:15.601Z,11.63
2023-04-16T10:13:19.220Z,11.64
2023-04-16T10:15:42.123Z,11.67
2023-04-16T10:17:47.650Z,11.74
2023-04-16T10:19:52.112Z,11.78
2023-04-16T10:21:55.853Z,11.82
2023-04-16T10:24:01.999Z,11.88
2023-04-16T10:26:06.526Z,11.94
2023-04-16T10:28:10.212Z,11.93
2023-04-16T10:30:19.074Z,11.93
2023-04-16T10:32:25.697Z,11.96
2023-04-16T10:34:32.463Z,11.97
2023-04-16T10:36:48.224Z,11.99
2023-04-16T10:39:01.061Z,11.98
2023-04-16T10:41:09.492Z,11.94
2023-04-16T10:43:18.994Z,11.96
2023-04-16T10:45:28.590Z,11.99
2023-04-16T10:47:32.965Z,12.00
2023-04-16T10:49:37.206Z,11.99
2023-04-16T10:51:40.737Z,12.00
2023-04-16T10:53:46.893Z,11.97
2023-04-16T10:55:57.944Z,11.95
2023-04-16T10:58:00.819Z,11.96
2023-04-16T11:00:42.854Z,11.92
2023-04-16T11:02:49.953Z,11.89
2023-04-16T11:04:58.322Z,11.88
2023-04-16T11:07:11.708Z,11.86
2023-04-16T11:09:34.392Z,11.84
2023-04-16T11:11:41.677Z,11.78
2023-04-16T11:13:47.033Z,11.75
2023-04-16T11:15:58.948Z,11.74
2023-04-16T11:18:05.521Z,11.71
2023-04-16T11:20:24.154Z,11.69
2023-04-16T11:22:29.392Z,11.67
2023-04-16T11:24:33.336Z,11.66
2023-04-16T11:26:36.278Z,11.65
2023-04-16T11:28:39.879Z,11.62
2023-04-16T11:30:42.673Z,11.62
2023-04-16T11:32:56.166Z,11.61
2023-04-16T11:35:04.431Z,11.62
2023-04-16T11:37:09.666Z,11.59
2023-04-16T11:39:13.344Z,11.56
2023-04-16T11:41:23.645Z,11.54
2023-04-16T11:43:26.866Z,11.51
2023-04-16T11:45:30.976Z,11.49
2023-04-16T11:47:47.597Z,11.46
2023-04-16T11:49:52.828Z,11.42
2023-04-16T11:51:56.608Z,11.34
2023-04-16T11:53:59.457Z,11.31
2023-04-16T11:56:04.999Z,11.29
2023-04-16T11:58:19.471Z,11.30
2023-04-16T12:00:24.761Z,11.29
2023-04-16T12:02:56.084Z,11.27
2023-04-16T12:05:06.774Z,11.30
2023-04-16T12:07:16.888Z,11.34
2023-04-16T12:09:28.091Z,11.40
2023-04-16T12:11:44.463Z,11.46
2023-04-16T12:14:24.862Z,11.48
2023-04-16T12:16:28.276Z,11.50
2023-04-16T12:18:32.247Z,11.54
2023-04-16T12:20:41.985Z,11.58
2023-04-16T12:22:47.702Z,11.65
2023-04-16T12:24:56.993Z,11.73
2023-04-16T12:27:03.761Z,11.77
2023-04-16T12:29:22.541Z,11.82
2023-04-16T12:31:56.534Z,11.83
2023-04-16T12:34:03.665Z,11.83
2023-04-16T12:36:19.528Z,11.84
2023-04-16T12:38:24.456Z,11.86
2023-04-16T12:40:28.854Z,11.90
2023-04-16T12:42:36.087Z,11.92
2023-04-16T12:44:39.411Z,11.94
2023-04-16T12:46:46.608Z,11.94
2023-04-16T12:48:50.432Z,12.01
2023-04-16T12:50:55.081Z,12.10
2023-04-16T12:53:00.895Z,12.14
2023-04-16T12:55:07.807Z,12.17
2023-04-16T12:57:28.821Z,12.21
2023-04-16T12:59:31.725Z,12.22
2023-04-16T13:01:37.238Z,12.20
2023-04-16T13:03:44.969Z,12.18
2023-04-16T13:05:48.210Z,12.19
2023-04-16T13:07:51.502Z,12.17
2023-04-16T13:09:54.963Z,12.15
2023-04-16T13:11:57.920Z,12.12
2023-04-16T13:14:03.488Z,12.10
2023-04-16T13:16:09.594Z,12.10
2023-04-16T13:18:14.821Z,12.11
2023-04-16T13:20:24.422Z,12.12
2023-04-16T13:22:27.775Z,12.09
2023-04-16T13:24:30.588Z,12.03
2023-04-16T13:26:33.883Z,11.99
2023-04-16T13:28:36.959Z,11.97
2023-04-16T13:30:39.800Z,11.93
2023-04-16T13:32:42.727Z,11.90
2023-04-16T13:34:45.803Z,11.88
2023-04-16T13:36:48.791Z,11.88
2023-04-16T13:38:51.990Z,11.93
2023-04-16T13:40:54.664Z,11.94
2023-04-16T13:42:58.032Z,11.93
2023-04-16T13:45:01.631Z,11.91
2023-04-16T13:47:06.670Z,11.89
2023-04-16T13:49:10.212Z,11.89
2023-04-16T13:51:15.837Z,11.90
2023-04-16T13:53:19.673Z,11.90
2023-04-16T13:55:22.984Z,11.94
2023-04-16T13:57:26.450Z,11.97
2023-04-16T13:59:33.357Z,11.98
2023-04-16T14:01:37.884Z,11.98
2023-04-16T14:03:42.651Z,12.00
2023-04-16T14:05:45.780Z,12.01
2023-04-16T14:07:49.049Z,12.03
2023-04-16T14:09:56.630Z,12.03
2023-04-16T14:11:59.594Z,12.06
2023-04-16T14:14:03.287Z,12.06
2023-04-16T14:16:10.311Z,12.04
2023-04-16T14:18:15.623Z,12.04
2023-04-16T14:20:18.994Z,12.04
2023-04-16T14:22:21.699Z,12.07
2023-04-16T14:24:45.725Z,12.09
2023-04-16T14:27:00.284Z,12.11
2023-04-16T14:29:03.159Z,12.13
2023-04-16T14:31:06.107Z,12.15
2023-04-16T14:33:09.427Z,12.17
2023-04-16T14:35:13.463Z,12.17
2023-04-16T14:37:17.942Z,12.16
2023-04-16T14:39:23.584Z,12.13
2023-04-16T14:41:27.306Z,12.11
2023-04-16T14:43:39.947Z,12.08
2023-04-16T14:45:47.773Z,12.08
2023-04-16T14:47:52.991Z,12.09
2023-04-16T14:49:59.114Z,12.10
2023-04-16T14:52:06.841Z,12.11
2023-04-16T14:54:10.696Z,12.10
2023-04-16T14:56:15.800Z,12.11
2023-04-16T15:00:42.256Z,12.01
2023-04-16T15:02:48.727Z,11.99
2023-04-16T15:04:51.876Z,11.98
2023-04-16T15:06:59.198Z,11.97
2023-04-16T15:09:04.152Z,11.99
2023-04-16T15:11:07.515Z,12.00
2023-04-16T15:13:25.560Z,12.01
2023-04-16T15:15:31.385Z,11.99
2023-04-16T15:17:38.248Z,11.97
2023-04-16T15:19:52.593Z,11.98
2023-04-16T15:22:03.984Z,11.98
2023-04-16T15:24:16.891Z,11.99
2023-04-16T15:26:45.685Z,11.98
2023-04-16T15:28:52.875Z,11.96
2023-04-16T15:30:58.069Z,11.92
2023-04-16T15:33:05.620Z,11.91
2023-04-16T15:35:12.121Z,11.91
2023-04-16T15:37:17.406Z,11.91
2023-04-16T15:39:23.960Z,11.89
2023-04-16T15:41:31.761Z,11.89
2023-04-16T15:43:39.541Z,11.89
2023-04-16T15:45:45.815Z,11.89
2023-04-16T15:47:51.496Z,11.88
2023-04-16T15:49:54.481Z,11.87
2023-04-16T15:52:03.074Z,11.82
2023-04-16T15:54:24.771Z,11.79
2023-04-16T15:56:28.762Z,11.76
2023-04-16T15:58:33.244Z,11.75
2023-04-16T16:00:39.941Z,11.71
2023-04-16T16:02:52.545Z,11.66
2023-04-16T16:05:02.510Z,11.62
2023-04-16T16:07:11.564Z,11.58
2023-04-16T16:09:24.963Z,11.58
2023-04-16T16:11:31.650Z,11.57
2023-04-16T16:13:36.962Z,11.57
2023-04-16T16:15:43.464Z,11.59
2023-04-16T16:17:53.220Z,11.60
2023-04-16T16:20:13.777Z,11.62
2023-04-16T16:22:28.518Z,11.61
2023-04-16T16:24:57.582Z,11.59
2023-04-16T16:27:02.989Z,11.56
2023-04-16T16:29:09.578Z,11.54
2023-04-16T16:31:14.880Z,11.53
2023-04-16T16:33:30.054Z,11.52
2023-04-16T16:35:33.497Z,11.50
2023-04-16T16:37:43.507Z,11.52
2023-04-16T16:39:51.304Z,11.52
2023-04-16T16:41:55.104Z,11.53
2023-04-16T16:44:05.542Z,11.54
2023-04-16T16:46:23.390Z,11.53
2023-04-16T16:48:28.721Z,11.53
2023-04-16T16:50:32.975Z,11.54
2023-04-16T16:52:39.007Z,11.53
2023-04-16T16:54:45.358Z,11.51
2023-04-16T16:56:48.094Z,11.49
2023-04-16T16:58:55.505Z,11.47
2023-04-16T17:01:01.489Z,11.45
2023-04-16T17:03:04.508Z,11.49
2023-04-16T17:05:08.812Z,11.52
2023-04-16T17:07:13.880Z,11.54
2023-04-16T17:09:18.688Z,11.55
2023-04-16T17:11:21.990Z,11.54
2023-04-16T17:13:28.284Z,11.53
2023-04-16T17:15:31.130Z,11.52
2023-04-16T17:17:38.141Z,11.52
2023-04-16T17:20:08.945Z,11.47
2023-04-16T17:22:15.728Z,11.40
2023-04-16T17:24:18.833Z,11.36
2023-04-16T17:26:27.100Z,11.33
2023-04-16T17:28:30.913Z,11.30
2023-04-16T17:30:33.798Z,11.29
2023-04-16T17:32:37.583Z,11.30
2023-04-16T17:34:41.616Z,11.28
2023-04-16T17:36:46.927Z,11.27
2023-04-16T17:38:51.557Z,11.22
2023-04-16T17:40:55.273Z,11.20
2023-04-16T17:42:59.770Z,11.15
2023-04-16T17:45:03.429Z,11.10
2023-04-16T17:47:08.814Z,11.05
2023-04-16T17:49:21.782Z,11.01
2023-04-16T17:51:30.127Z,10.95
2023-04-16T17:53:35.483Z,10.93
2023-04-16T17:55:38.350Z,10.93
2023-04-16T17:57:41.047Z,10.92
2023-04-16T17:59:44.222Z,10.94
2023-04-16T18:01:49.510Z,10.94
2023-04-16T18:03:52.557Z,10.94
2023-04-16T18:05:58.497Z,10.94
2023-04-16T18:08:02.390Z,10.93
2023-04-16T18:10:08.889Z,10.94
2023-04-16T18:12:13.847Z,10.95
2023-04-16T18:14:22.498Z,10.93
2023-04-16T18:16:26.264Z,10.95
2023-04-16T18:18:31.136Z,10.97
2023-04-16T18:20:35.383Z,11.00
2023-04-16T18:22:40.344Z,11.01
2023-04-16T18:24:49.428Z,11.02
2023-04-16T18:28:57.494Z,10.97
2023-04-16T18:31:14.614Z,10.94
2023-04-16T18:33:48.636Z,10.88
2023-04-16T18:35:47.746Z,10.81
2023-04-16T18:37:50.943Z,10.82
2023-04-16T18:39:57.934Z,10.80
2023-04-16T18:42:03.971Z,10.79
2023-04-16T18:44:10.917Z,10.76
2023-04-16T18:46:16.097Z,10.72
2023-04-16T18:48:19.240Z,10.69
2023-04-16T18:50:22.111Z,10.68
2023-04-16T18:52:24.881Z,10.67
2023-04-16T18:54:32.010Z,10.67
2023-04-16T18:56:34.772Z,10.66
2023-04-16T18:58:38.885Z,10.65
2023-04-16T19:00:42.136Z,10.65
2023-04-16T19:02:46.271Z,10.66
2023-04-16T19:04:49.093Z,10.68
2023-04-16T19:06:52.556Z,10.69
2023-04-16T19:09:00.230Z,10.70
2023-04-16T19:11:06.330Z,10.70
2023-04-16T19:13:09.737Z,10.67
2023-04-16T19:15:15.718Z,10.64
2023-04-16T19:17:18.987Z,10.62
2023-04-16T19:19:24.316Z,10.61
2023-04-16T19:21:27.737Z,10.61
2023-04-16T19:23:32.894Z,10.61
2023-04-16T19:25:40.683Z,10.61
2023-04-16T19:27:47.067Z,10.62
2023-04-16T19:29:50.234Z,10.62
2023-04-16T19:31:55.336Z,10.62
2023-04-16T19:33:58.178Z,10.62
2023-04-16T19:36:02.810Z,10.62
2023-04-16T19:38:10.967Z,10.63
2023-04-16T19:40:13.959Z,10.63
2023-04-16T19:42:16.614Z,10.63
2023-04-16T19:44:23.621Z,10.61
2023-04-16T19:46:36.331Z,10.61
2023-04-16T19:48:42.822Z,10.61
2023-04-16T19:50:46.562Z,10.62
2023-04-16T19:52:49.675Z,10.64
2023-04-16T19:54:52.779Z,10.66
2023-04-16T19:56:57.101Z,10.68
2023-04-16T19:59:03.395Z,10.69
2023-04-16T20:01:11.096Z,10.68
2023-04-16T20:03:14.353Z,10.67
2023-04-16T20:05:20.150Z,10.68
2023-04-16T20:07:24.657Z,10.67
2023-04-16T20:09:37.477Z,10.64
2023-04-16T20:11:47.212Z,10.62
2023-04-16T20:13:49.996Z,10.60
2023-04-16T20:15:53.834Z,10.60
2023-04-16T20:17:56.921Z,10.61
2023-04-16T20:20:01.199Z,10.63
2023-04-16T20:22:09.051Z,10.64
2023-04-16T20:24:12.073Z,10.64
2023-04-16T20:26:19.456Z,10.66
2023-04-16T20:28:22.440Z,10.66
2023-04-16T20:30:29.651Z,10.66
2023-04-16T20:32:33.470Z,10.67
2023-04-16T20:34:38.890Z,10.65
2023-04-16T20:36:43.868Z,10.65
2023-04-16T20:38:48.434Z,10.65
2023-04-16T20:41:13.229Z,10.65
2023-04-16T20:43:19.872Z,10.65
2023-04-16T20:45:24.288Z,10.67
2023-04-16T20:47:27.269Z,10.70
2023-04-16T20:49:30.220Z,10.70
2023-04-16T20:51:33.424Z,10.71
2023-04-16T20:53:40.496Z,10.72
2023-04-16T20:55:44.939Z,10.72
2023-04-16T20:57:48.942Z,10.70
2023-04-16T20:59:53.662Z,10.70
2023-04-16T21:01:57.243Z,10.72
2023-04-16T21:04:01.705Z,10.73
2023-04-16T21:06:08.348Z,10.73
2023-04-16T21:08:11.626Z,10.76
2023-04-16T21:10:20.255Z,10.79
2023-04-16T21:12:23.613Z,10.82
2023-04-16T21:14:28.590Z,10.84
2023-04-16T21:16:32.481Z,10.86
2023-04-16T21:18:36.896Z,10.86
2023-04-16T21:20:40.105Z,10.87
2023-04-16T21:22:47.982Z,10.87
2023-04-16T21:24:53.728Z,10.87
2023-04-16T21:27:03.970Z,10.86
2023-04-16T21:29:09.426Z,10.83
2023-04-16T21:31:15.288Z,10.79
2023-04-16T21:33:19.707Z,10.76
2023-04-16T21:35:23.161Z,10.77
2023-04-16T21:37:26.596Z,10.76
2023-04-16T21:39:31.293Z,10.77
2023-04-16T21:41:34.175Z,10.78
2023-04-16T21:43:38.272Z,10.77
2023-04-16T21:45:41.700Z,10.78
2023-04-16T21:47:44.814Z,10.78
2023-04-16T21:49:47.461Z,10.77
2023-04-16T21:51:50.307Z,10.77
2023-04-16T21:53:57.900Z,10.76
2023-04-16T21:56:00.794Z,10.75
2023-04-16T21:58:04.680Z,10.75
2023-04-16T22:00:13.961Z,10.77
2023-04-16T22:02:17.054Z,10.78
2023-04-16T22:04:26.486Z,10.78
2023-04-16T22:06:29.977Z,10.75
2023-04-16T22:08:32.686Z,10.71
2023-04-16T22:10:36.406Z,10.66
2023-04-16T22:12:45.226Z,10.64
2023-04-16T22:14:59.768Z,10.63
2023-04-16T22:17:15.116Z,10.63
2023-04-16T22:19:21.748Z,10.62
2023-04-16T22:21:24.932Z,10.61
2023-04-16T22:23:27.853Z,10.61
2023-04-16T22:25:30.870Z,10.61
2023-04-16T22:27:34.934Z,10.65
2023-04-16T22:29:37.981Z,10.68
2023-04-16T22:31:40.987Z,10.70
2023-04-16T22:33:43.814Z,10.71
2023-04-16T22:35:46.749Z,10.72
2023-04-16T22:37:50.552Z,10.74
2023-04-16T22:39:53.872Z,10.74
2023-04-16T22:41:56.833Z,10.75
2023-04-16T22:44:24.127Z,10.74
2023-04-16T22:46:27.911Z,10.75
2023-04-16T22:48:33.090Z,10.73
2023-04-16T22:50:36.051Z,10.70
2023-04-16T22:52:42.280Z,10.69
2023-04-16T22:54:45.821Z,10.71
2023-04-16T22:56:48.945Z,10.71
2023-04-16T22:59:08.223Z,10.72
2023-04-16T23:01:11.394Z,10.70
2023-04-16T23:03:15.655Z,10.69
2023-04-16T23:05:21.685Z,10.66
2023-04-16T23:07:25.738Z,10.65
2023-04-16T23:09:28.703Z,10.64
2023-04-16T23:11:31.577Z,10.64
2023-04-16T23:13:35.731Z,10.65
2023-04-16T23:15:38.598Z,10.65
2023-04-16T23:17:42.465Z,10.65
2023-04-16T23:19:48.674Z,10.66
2023-04-16T23:21:52.305Z,10.67
2023-04-16T23:23:55.750Z,10.65
2023-04-16T23:25:58.589Z,10.65
2023-04-16T23:28:01.549Z,10.63
2023-04-16T23:30:07.288Z,10.60
2023-04-16T23:32:11.906Z,10.57
2023-04-16T23:34:14.689Z,10.55
2023-04-16T23:36:17.470Z,10.54
2023-04-16T23:38:21.359Z,10.51
2023-04-16T23:40:29.341Z,10.48
2023-04-16T23:42:35.587Z,10.47
2023-04-16T23:44:40.643Z,10.48
2023-04-16T23:46:49.761Z,10.50
2023-04-16T23:48:56.369Z,10.52
2023-04-16T23:51:00.368Z,10.53
2023-04-16T23:53:11.090Z,10.55
2023-04-16T23:55:14.822Z,10.56
2023-04-16T23:57:17.681Z,10.55
2023-04-16T23:59:20.903Z,10.53
